Terminal Aerodrome Forecast
Issued by NWS

Home | Current Version | Previous Version | Text Only | Print | Product List | Glossary On
Versions: 1 2 3 4 5 6 7 8 9 10 11 12 13 14 15 16 17 18 19 20
000
FTUS41 KBTV 280500 RRA
TAFSLK
TAF
KSLK 280541Z 2806/2906 00000KT 3SM BR BKN200
      TEMPO 2806/2810 1SM BR SCT002
     FM281000 VRB03KT 3SM RA BR SCT002 OVC030
     FM281200 06005KT 3SM -RA BR VCTS OVC010CB
     FM290000 34007KT 3SM -SHRA BR OVC010
     FM290300 30008KT 6SM -SHRA BR BKN010=

USA.gov is the U.S. government's official web portal to all federal, state and local government web resources and services.